Time;durP1;ratioP1;P1;durP2;ratioP2;P2;SDS_P1;SDS_P2;PMS_P1;PMS_P2;Temp;Humidity;BMP_temperature;BMP_pressure;BME280_temperature;BME280_humidity;BME280_pressure;Samples;Min_cycle;Max_cycle;Signal;HPM_P1;HPM_P2
2022/05/06 00:02:08;;;;;;;3.63;2.45;;;14.70;99.90;;;;;;5070287;28;20205;-71
2022/05/06 00:04:36;;;;;;;2.45;2.15;;;14.60;99.90;;;;;;5070369;28;20781;-72
2022/05/06 00:07:03;;;;;;;4.32;2.15;;;14.70;99.90;;;;;;5073615;28;20230;-71
2022/05/06 00:09:30;;;;;;;2.95;1.73;;;14.60;99.90;;;;;;5074287;28;20209;-72
2022/05/06 00:11:57;;;;;;;4.00;1.95;;;14.60;99.90;;;;;;5074525;28;20224;-70
2022/05/06 00:14:24;;;;;;;4.38;2.35;;;14.50;99.90;;;;;;5074629;28;20343;-70
2022/05/06 00:16:52;;;;;;;4.18;2.58;;;14.50;99.90;;;;;;5074634;28;20210;-71
2022/05/06 00:19:19;;;;;;;3.60;1.50;;;14.40;99.90;;;;;;5073943;28;20206;-77
2022/05/06 00:21:46;;;;;;;2.10;1.90;;;14.40;99.90;;;;;;5074413;28;20202;-76
2022/05/06 00:24:13;;;;;;;3.22;1.90;;;14.30;99.90;;;;;;5073679;28;20198;-78
2022/05/06 00:26:41;;;;;;;2.30;2.10;;;14.40;99.90;;;;;;5074559;28;20199;-77
2022/05/06 00:29:09;;;;;;;3.70;2.20;;;14.40;99.90;;;;;;5074201;28;20297;-81
2022/05/06 00:31:36;;;;;;;1.88;1.67;;;14.30;99.90;;;;;;5074280;28;20202;-79
2022/05/06 00:34:04;;;;;;;1.67;1.58;;;14.30;99.90;;;;;;5074144;28;20225;-79
2022/05/06 00:36:31;;;;;;;2.63;2.42;;;14.20;99.90;;;;;;5074044;28;20232;-75
2022/05/06 00:38:58;;;;;;;3.53;2.42;;;14.20;99.90;;;;;;5073529;28;20245;-74
2022/05/06 00:41:25;;;;;;;2.67;2.30;;;14.10;99.90;;;;;;5074402;28;20233;-71
2022/05/06 00:43:52;;;;;;;3.45;2.35;;;14.10;99.90;;;;;;5074385;28;20198;-76
2022/05/06 00:46:20;;;;;;;6.15;2.05;;;14.10;99.90;;;;;;5073570;28;20259;-76
2022/05/06 00:48:48;;;;;;;2.50;2.30;;;14.00;99.90;;;;;;5073831;28;20619;-71
2022/05/06 00:51:18;;;;;;;4.10;2.10;;;14.00;99.90;;;;;;5073254;28;20559;-71
2022/05/06 00:53:45;;;;;;;2.83;2.20;;;13.90;99.90;;;;;;5073562;28;20279;-70
2022/05/06 00:56:17;;;;;;;5.90;2.00;;;13.80;99.90;;;;;;5055848;28;20666;-71
2022/05/06 00:58:44;;;;;;;4.00;2.35;;;13.80;99.90;;;;;;5053638;28;20734;-71
2022/05/06 01:01:12;;;;;;;2.70;2.47;;;13.70;99.90;;;;;;5053287;28;20309;-69
2022/05/06 01:03:39;;;;;;;3.63;2.08;;;13.70;99.90;;;;;;5053540;28;20260;-75
2022/05/06 01:06:10;;;;;;;3.22;2.38;;;13.60;99.90;;;;;;5052724;28;20238;-75
2022/05/06 01:08:39;;;;;;;2.70;2.50;;;13.60;99.90;;;;;;5053378;28;20203;-76
2022/05/06 01:11:06;;;;;;;3.08;2.78;;;13.60;99.90;;;;;;5053344;28;20213;-76
2022/05/06 01:13:39;;;;;;;3.60;2.03;;;13.60;99.90;;;;;;5053417;28;20202;-76
2022/05/06 01:16:06;;;;;;;2.35;2.15;;;13.60;99.90;;;;;;5052994;28;20282;-74
2022/05/06 01:18:33;;;;;;;2.45;2.25;;;13.50;99.90;;;;;;5052436;28;20229;-76
2022/05/06 01:21:03;;;;;;;2.83;2.63;;;13.40;99.90;;;;;;5052939;28;20293;-74
2022/05/06 01:23:32;;;;;;;4.03;1.90;;;13.30;99.90;;;;;;5053334;28;20211;-73
2022/05/06 01:25:59;;;;;;;4.15;2.40;;;13.20;99.90;;;;;;5052774;28;20313;-70
2022/05/06 01:28:28;;;;;;;2.83;2.63;;;13.30;99.90;;;;;;5053150;28;20257;-71
2022/05/06 01:31:00;;;;;;;5.07;2.47;;;13.40;99.90;;;;;;5053074;28;20203;-70
2022/05/06 01:33:29;;;;;;;4.25;2.60;;;13.40;99.90;;;;;;5053006;28;20260;-70
2022/05/06 01:35:59;;;;;;;4.13;2.63;;;13.30;99.90;;;;;;5053055;28;20268;-70
2022/05/06 01:38:31;;;;;;;6.78;2.53;;;13.30;99.90;;;;;;5052856;28;20246;-70
2022/05/06 01:41:03;;;;;;;2.63;2.10;;;13.20;99.90;;;;;;5052413;28;20207;-69
2022/05/06 01:43:38;;;;;;;3.20;2.10;;;13.10;99.90;;;;;;5052724;28;20245;-69
2022/05/06 01:46:07;;;;;;;2.53;2.33;;;13.10;99.90;;;;;;5052342;28;20234;-70
2022/05/06 01:48:35;;;;;;;3.67;2.70;;;13.10;99.90;;;;;;5052889;28;20632;-77
2022/05/06 01:51:03;;;;;;;3.10;2.50;;;13.00;99.90;;;;;;5052069;28;20568;-77
2022/05/06 01:53:30;;;;;;;4.05;2.53;;;13.00;99.90;;;;;;5052619;28;20242;-76
2022/05/06 01:55:57;;;;;;;3.65;2.47;;;12.90;99.90;;;;;;5052606;28;20252;-76
2022/05/06 01:58:26;;;;;;;2.13;2.00;;;12.90;99.90;;;;;;5052994;28;20260;-77
2022/05/06 02:00:53;;;;;;;3.65;2.63;;;12.80;99.90;;;;;;5053008;28;20199;-74
2022/05/06 02:06:04;;;;;;;4.38;3.55;;;12.80;99.90;;;;;;5051646;28;20233;-76
2022/05/06 02:08:31;;;;;;;3.35;2.65;;;12.70;99.90;;;;;;5052347;28;20253;-75
2022/05/06 02:10:58;;;;;;;3.00;2.70;;;12.70;99.90;;;;;;5051780;28;20248;-73
2022/05/06 02:13:27;;;;;;;2.83;2.42;;;12.70;99.90;;;;;;5052625;28;20206;-75
2022/05/06 02:15:54;;;;;;;3.03;2.72;;;12.70;99.90;;;;;;5052676;28;20210;-75
2022/05/06 02:18:21;;;;;;;3.80;2.75;;;12.60;99.90;;;;;;5051618;28;20211;-75
2022/05/06 02:20:48;;;;;;;2.92;2.50;;;12.50;99.90;;;;;;5051845;28;20724;-71
2022/05/06 02:23:15;;;;;;;4.63;3.13;;;12.50;99.90;;;;;;5051581;28;20229;-70
2022/05/06 02:25:42;;;;;;;3.05;2.55;;;12.50;99.90;;;;;;5052136;28;20280;-69
2022/05/06 02:28:09;;;;;;;3.90;2.85;;;12.50;99.90;;;;;;5051568;28;20276;-71
2022/05/06 02:33:24;;;;;;;3.80;2.85;;;12.50;99.90;;;;;;5051639;28;20586;-73
2022/05/06 02:35:52;;;;;;;4.65;2.95;;;12.50;99.90;;;;;;5052065;28;20199;-75
2022/05/06 02:38:19;;;;;;;3.50;2.78;;;12.50;99.90;;;;;;5051295;28;20219;-77
2022/05/06 02:40:47;;;;;;;4.15;2.78;;;12.50;99.90;;;;;;5051811;28;20214;-76
2022/05/06 02:43:14;;;;;;;3.97;3.03;;;12.50;99.90;;;;;;5051428;28;20242;-75
2022/05/06 02:45:43;;;;;;;2.92;2.45;;;12.50;99.90;;;;;;5051641;28;20300;-74
2022/05/06 02:48:10;;;;;;;6.85;2.63;;;12.40;99.90;;;;;;5051041;28;20361;-75
2022/05/06 02:50:37;;;;;;;4.28;2.92;;;12.40;99.90;;;;;;5051807;28;20203;-74
2022/05/06 02:53:05;;;;;;;2.78;2.58;;;12.40;99.90;;;;;;5051012;28;20613;-75
2022/05/06 02:55:33;;;;;;;4.30;2.85;;;12.50;99.90;;;;;;5051510;28;20686;-74
2022/05/06 02:58:00;;;;;;;3.28;2.85;;;12.50;99.90;;;;;;5051119;28;20203;-76
2022/05/06 03:00:28;;;;;;;2.83;2.50;;;12.50;99.90;;;;;;5051369;28;20211;-76
2022/05/06 03:02:57;;;;;;;3.88;2.72;;;12.60;99.90;;;;;;5051482;28;20210;-70
2022/05/06 03:05:24;;;;;;;2.83;2.50;;;12.50;99.90;;;;;;5051582;28;20233;-70
2022/05/06 03:07:51;;;;;;;2.40;2.10;;;12.60;99.90;;;;;;5051596;28;20667;-70
2022/05/06 03:10:18;;;;;;;3.78;2.85;;;12.50;99.90;;;;;;5051083;28;20606;-70
2022/05/06 03:12:47;;;;;;;2.95;2.58;;;12.40;99.90;;;;;;5051312;28;20198;-70
2022/05/06 03:15:15;;;;;;;2.95;2.63;;;12.40;99.90;;;;;;5050767;28;20209;-75
2022/05/06 03:17:42;;;;;;;4.07;2.58;;;12.50;99.90;;;;;;5051044;28;20253;-74
2022/05/06 03:20:10;;;;;;;3.72;2.78;;;12.50;99.90;;;;;;5050837;28;20203;-75
2022/05/06 03:22:41;;;;;;;2.45;2.22;;;12.40;99.90;;;;;;5051059;28;20223;-74
2022/05/06 03:25:10;;;;;;;3.60;3.13;;;12.30;99.90;;;;;;5050870;28;20234;-75
2022/05/06 03:30:21;;;;;;;5.72;2.95;;;12.20;99.90;;;;;;5050623;28;20797;-75
2022/05/06 03:32:48;;;;;;;2.95;2.55;;;12.10;99.90;;;;;;5050896;28;20206;-74
2022/05/06 03:35:17;;;;;;;4.13;2.58;;;12.10;99.90;;;;;;5050627;28;20203;-73
2022/05/06 03:37:44;;;;;;;5.07;2.17;;;12.10;99.90;;;;;;5050764;28;20210;-70
2022/05/06 03:40:12;;;;;;;3.30;2.47;;;12.10;99.90;;;;;;5050098;28;20211;-70
2022/05/06 03:42:39;;;;;;;2.97;2.50;;;12.10;99.90;;;;;;5050569;28;20207;-70
2022/05/06 03:45:09;;;;;;;4.50;2.83;;;12.00;99.90;;;;;;5050245;28;20209;-71
2022/05/06 03:47:36;;;;;;;3.08;2.75;;;12.10;99.90;;;;;;5050661;28;20198;-70
2022/05/06 03:52:50;;;;;;;5.22;3.30;;;12.10;99.90;;;;;;5050727;28;20297;-71
2022/05/06 03:55:17;;;;;;;4.80;3.15;;;12.10;99.90;;;;;;5050336;28;20633;-71
2022/05/06 03:57:44;;;;;;;3.67;2.83;;;12.10;99.90;;;;;;5050633;28;20724;-71
2022/05/06 04:00:12;;;;;;;2.90;2.58;;;12.10;99.90;;;;;;5050193;28;20202;-73
2022/05/06 04:02:39;;;;;;;4.30;2.83;;;12.10;99.90;;;;;;5050674;28;20248;-74
2022/05/06 04:05:06;;;;;;;2.95;2.45;;;12.10;99.90;;;;;;5050054;28;20261;-73
2022/05/06 04:07:33;;;;;;;3.55;2.85;;;12.00;99.90;;;;;;5050928;28;20253;-73
2022/05/06 04:10:02;;;;;;;4.60;3.28;;;12.10;99.90;;;;;;5050413;28;20203;-73
2022/05/06 04:12:28;;;;;;;3.38;3.08;;;12.00;99.90;;;;;;5050802;28;20206;-73
2022/05/06 04:14:56;;;;;;;3.60;2.65;;;12.00;99.90;;;;;;5050541;28;20253;-73
2022/05/06 04:17:23;;;;;;;6.05;2.80;;;12.00;99.90;;;;;;5050458;28;20207;-74
2022/05/06 04:25:21;;;;;;;2.63;2.42;;;12.10;99.90;;;;;;5050049;28;20210;-75
2022/05/06 04:27:48;;;;;;;5.72;2.97;;;12.00;99.90;;;;;;5050478;28;20199;-74
2022/05/06 04:30:15;;;;;;;3.67;2.95;;;12.00;99.90;;;;;;5049635;28;20211;-75
2022/05/06 04:32:43;;;;;;;3.05;2.65;;;11.90;99.90;;;;;;5050561;28;20651;-74
2022/05/06 04:35:10;;;;;;;3.28;3.03;;;12.00;99.90;;;;;;5050060;28;20202;-73
2022/05/06 04:37:37;;;;;;;5.03;2.38;;;11.90;99.90;;;;;;5050178;28;20211;-74
2022/05/06 04:40:06;;;;;;;4.80;2.50;;;12.00;99.90;;;;;;5050039;28;20199;-69
2022/05/06 04:42:34;;;;;;;3.75;3.15;;;11.90;99.90;;;;;;5049951;28;20248;-74
2022/05/06 04:45:01;;;;;;;2.57;2.30;;;11.90;99.90;;;;;;5049614;28;20207;-72
2022/05/06 04:47:28;;;;;;;4.78;2.20;;;11.90;99.90;;;;;;5049692;28;20235;-74
2022/05/06 04:49:55;;;;;;;2.72;2.53;;;12.00;99.90;;;;;;5050414;28;20290;-73
2022/05/06 04:52:22;;;;;;;3.83;3.25;;;12.00;99.90;;;;;;5050718;28;20284;-73
2022/05/06 04:54:49;;;;;;;3.53;2.65;;;11.90;99.90;;;;;;5053376;28;20724;-72
2022/05/06 04:57:16;;;;;;;5.00;2.38;;;12.10;99.90;;;;;;5053438;28;20203;-73
2022/05/06 04:59:47;;;;;;;4.23;2.43;;;12.10;99.90;;;;;;5053793;28;20199;-71
2022/05/06 05:02:16;;;;;;;3.00;2.05;;;12.10;99.90;;;;;;5053427;28;20257;-74
2022/05/06 05:04:43;;;;;;;2.95;2.05;;;12.30;99.90;;;;;;5053781;28;20666;-70
2022/05/06 05:07:10;;;;;;;3.28;2.97;;;12.40;99.90;;;;;;5053481;28;20241;-73
2022/05/06 05:09:37;;;;;;;3.08;2.58;;;12.50;99.90;;;;;;5053473;28;20249;-69
2022/05/06 05:12:06;;;;;;;2.73;2.53;;;12.50;99.90;;;;;;5053754;28;20276;-74
2022/05/06 05:14:36;;;;;;;3.67;2.53;;;12.30;99.90;;;;;;5053764;28;20234;-71
2022/05/06 05:17:04;;;;;;;2.60;2.40;;;12.30;99.90;;;;;;5053262;28;20302;-71
2022/05/06 05:19:31;;;;;;;4.47;2.85;;;12.30;99.90;;;;;;5053432;28;20628;-71
2022/05/06 05:21:58;;;;;;;3.13;2.83;;;12.40;99.90;;;;;;5053017;28;20624;-71
2022/05/06 05:24:26;;;;;;;3.80;2.85;;;12.30;99.90;;;;;;5053732;28;20569;-75
2022/05/06 05:26:54;;;;;;;4.07;2.43;;;12.50;99.90;;;;;;5053784;28;20242;-75
2022/05/06 05:29:21;;;;;;;5.15;2.42;;;12.40;99.90;;;;;;5052563;28;20293;-71
2022/05/06 05:31:48;;;;;;;2.73;2.27;;;12.50;99.90;;;;;;5053206;28;20203;-69
2022/05/06 05:34:16;;;;;;;4.53;3.78;;;12.40;99.90;;;;;;5052868;28;20207;-70
2022/05/06 05:36:43;;;;;;;3.53;3.10;;;12.30;99.90;;;;;;5052765;28;20260;-75
2022/05/06 05:39:11;;;;;;;4.75;3.50;;;12.30;99.90;;;;;;5052952;28;20625;-72
2022/05/06 05:41:38;;;;;;;3.85;3.45;;;12.40;99.90;;;;;;5052737;28;20233;-73
2022/05/06 05:49:36;;;;;;;4.43;3.20;;;12.40;99.90;;;;;;5052944;28;20206;-72
2022/05/06 05:52:04;;;;;;;5.32;3.78;;;12.50;99.90;;;;;;5052433;28;20203;-72
2022/05/06 05:54:31;;;;;;;7.07;3.40;;;12.60;99.90;;;;;;5052518;28;20261;-71
2022/05/06 05:56:58;;;;;;;5.30;3.20;;;12.60;99.90;;;;;;5052235;28;20670;-71
2022/05/06 05:59:25;;;;;;;5.00;4.07;;;12.70;99.90;;;;;;5052901;28;20207;-74
2022/05/06 06:01:52;;;;;;;7.03;3.88;;;12.70;99.90;;;;;;5052837;28;20462;-72
2022/05/06 06:04:19;;;;;;;4.60;3.22;;;12.90;99.90;;;;;;5052175;28;20233;-71
2022/05/06 06:06:48;;;;;;;7.35;3.38;;;12.90;99.90;;;;;;5052384;28;20683;-70
2022/05/06 06:09:17;;;;;;;3.72;3.42;;;12.90;99.90;;;;;;5052072;28;20206;-72
2022/05/06 06:11:44;;;;;;;6.55;4.30;;;13.10;99.90;;;;;;5052256;28;20203;-73
2022/05/06 06:14:11;;;;;;;5.53;3.15;;;13.30;99.90;;;;;;5051976;28;20249;-70
2022/05/06 06:16:38;;;;;;;11.27;4.10;;;13.30;99.90;;;;;;5052494;28;20265;-72
2022/05/06 06:19:05;;;;;;;3.60;3.17;;;13.40;99.90;;;;;;5051924;28;20203;-71
2022/05/06 06:21:32;;;;;;;4.43;3.67;;;13.40;99.90;;;;;;5052308;28;20260;-73
2022/05/06 06:24:00;;;;;;;3.53;3.22;;;13.50;99.90;;;;;;5051856;28;20222;-69
2022/05/06 06:26:27;;;;;;;4.00;3.33;;;13.50;99.90;;;;;;5051824;28;20234;-75
2022/05/06 06:28:55;;;;;;;4.20;3.17;;;13.60;99.90;;;;;;5052311;28;20240;-75
2022/05/06 06:31:22;;;;;;;5.55;3.35;;;13.60;99.90;;;;;;5051539;28;20682;-70
2022/05/06 06:33:49;;;;;;;5.32;3.15;;;13.70;99.90;;;;;;5051846;28;20252;-72
2022/05/06 06:36:17;;;;;;;3.83;2.97;;;13.70;99.90;;;;;;5051421;28;20591;-71
2022/05/06 06:38:44;;;;;;;5.95;3.92;;;13.70;99.90;;;;;;5057523;28;20246;-71
2022/05/06 06:41:12;;;;;;;5.18;3.85;;;13.80;99.90;;;;;;5064049;28;20221;-74
2022/05/06 06:43:39;;;;;;;4.82;3.70;;;13.70;99.90;;;;;;5059035;28;20269;-74
2022/05/06 06:46:06;;;;;;;6.50;3.60;;;13.70;99.90;;;;;;5060196;28;20662;-73
2022/05/06 06:48:33;;;;;;;8.90;3.97;;;13.70;99.90;;;;;;5063959;28;20210;-73
2022/05/06 06:51:00;;;;;;;4.18;3.08;;;13.80;99.90;;;;;;5059445;28;20206;-72
2022/05/06 06:53:28;;;;;;;4.93;3.50;;;13.90;99.90;;;;;;5057381;28;20210;-71
2022/05/06 06:55:56;;;;;;;5.57;2.95;;;14.10;99.90;;;;;;5063307;28;20251;-74
2022/05/06 06:58:25;;;;;;;4.65;2.78;;;14.30;99.90;;;;;;5064274;28;20214;-72
2022/05/06 07:00:52;;;;;;;5.10;3.58;;;14.40;99.90;;;;;;5067734;28;20288;-76
2022/05/06 07:03:20;;;;;;;4.43;3.10;;;14.50;99.90;;;;;;5061938;28;20289;-71
2022/05/06 07:14:08;;;;;;;5.70;2.95;;;14.50;99.90;;;;;;5070632;28;20700;-79
2022/05/06 07:16:38;;;;;;;6.72;3.95;;;14.40;99.90;;;;;;5070395;28;20674;-76
2022/05/06 07:19:05;;;;;;;3.78;3.35;;;14.50;99.90;;;;;;5070593;28;20255;-80
2022/05/06 07:21:32;;;;;;;4.45;2.97;;;14.40;99.90;;;;;;5069765;28;20260;-77
2022/05/06 07:23:59;;;;;;;5.22;3.28;;;14.40;99.90;;;;;;5070617;28;20229;-73
2022/05/06 07:26:27;;;;;;;4.82;3.60;;;14.60;99.90;;;;;;5071149;28;20228;-75
2022/05/06 07:28:54;;;;;;;3.47;2.80;;;14.70;99.90;;;;;;5068567;28;20301;-72
2022/05/06 07:31:22;;;;;;;4.15;2.45;;;15.00;99.90;;;;;;5059949;28;20207;-76
2022/05/06 07:33:49;;;;;;;3.72;3.17;;;15.40;99.90;;;;;;5066380;28;20677;-73
2022/05/06 07:36:16;;;;;;;6.00;2.90;;;15.40;99.90;;;;;;5063916;28;20684;-73
2022/05/06 07:38:43;;;;;;;3.72;3.35;;;15.40;99.90;;;;;;5069989;28;20662;-75
2022/05/06 07:41:10;;;;;;;4.68;3.53;;;15.40;99.90;;;;;;5070375;28;20213;-77
2022/05/06 07:43:37;;;;;;;4.65;2.95;;;15.50;99.90;;;;;;5070320;28;20267;-74
2022/05/06 07:46:04;;;;;;;7.05;3.92;;;15.50;99.90;;;;;;5070106;28;20210;-76
2022/05/06 07:48:33;;;;;;;4.63;3.22;;;15.50;99.90;;;;;;5068203;28;20233;-76
2022/05/06 07:51:00;;;;;;;4.93;3.55;;;15.60;99.90;;;;;;5070281;28;20206;-73
2022/05/06 07:53:27;;;;;;;5.93;3.83;;;15.90;99.90;;;;;;5070392;28;20209;-73
2022/05/06 07:55:54;;;;;;;4.47;4.00;;;16.10;99.90;;;;;;5070746;28;20203;-77
2022/05/06 07:58:21;;;;;;;3.60;3.08;;;16.00;99.90;;;;;;5070019;28;20268;-74
2022/05/06 08:00:50;;;;;;;6.63;3.45;;;16.10;99.90;;;;;;5071237;28;20210;-75
2022/05/06 08:06:03;;;;;;;4.75;3.28;;;16.00;99.90;;;;;;5050127;28;20190;-74
2022/05/06 08:08:31;;;;;;;3.72;3.42;;;16.10;99.90;;;;;;5068244;28;20226;-74
2022/05/06 08:10:58;;;;;;;4.30;3.28;;;16.10;99.90;;;;;;5070080;28;20212;-73
2022/05/06 08:13:26;;;;;;;4.53;3.42;;;16.30;99.90;;;;;;5071066;28;20202;-74
2022/05/06 08:15:54;;;;;;;3.50;3.20;;;16.50;99.90;;;;;;5071002;28;20570;-75
2022/05/06 08:18:21;;;;;;;2.67;2.45;;;16.50;99.90;;;;;;5070026;28;20752;-74
2022/05/06 08:20:48;;;;;;;6.90;3.25;;;16.60;99.90;;;;;;5070921;28;20719;-74
2022/05/06 08:23:16;;;;;;;5.35;3.78;;;16.80;99.90;;;;;;5069915;28;20731;-76
2022/05/06 08:25:43;;;;;;;5.55;4.03;;;17.10;99.90;;;;;;5070448;28;20264;-73
2022/05/06 08:28:10;;;;;;;5.13;4.72;;;17.30;99.90;;;;;;5072011;28;20260;-77
2022/05/06 08:30:38;;;;;;;5.57;4.10;;;17.30;99.90;;;;;;5074528;28;20203;-78
2022/05/06 08:33:05;;;;;;;3.58;3.28;;;17.40;99.90;;;;;;5073857;28;20241;-76
2022/05/06 08:35:32;;;;;;;6.50;3.53;;;17.50;99.90;;;;;;5073960;28;20206;-78
2022/05/06 08:37:59;;;;;;;5.57;3.08;;;17.60;99.90;;;;;;5073347;28;20263;-76
2022/05/06 08:40:30;;;;;;;5.63;3.40;;;17.50;99.90;;;;;;5074310;28;20255;-75
2022/05/06 08:42:58;;;;;;;5.00;3.40;;;17.50;99.90;;;;;;5074267;28;20213;-76
2022/05/06 08:50:56;;;;;;;3.05;2.75;;;17.50;99.90;;;;;;5073868;28;20677;-77
2022/05/06 08:53:24;;;;;;;4.38;3.22;;;18.00;99.90;;;;;;5074188;28;20210;-77
2022/05/06 08:55:55;;;;;;;7.30;3.40;;;18.10;99.90;;;;;;5074029;28;20264;-77
2022/05/06 08:58:22;;;;;;;3.88;3.22;;;18.20;99.90;;;;;;5073766;28;20271;-76
2022/05/06 09:00:49;;;;;;;3.60;2.85;;;18.70;99.90;;;;;;5073688;28;20293;-77
2022/05/06 09:03:18;;;;;;;5.88;3.70;;;19.00;99.90;;;;;;5073432;28;20459;-74
2022/05/06 09:05:52;;;;;;;3.70;3.40;;;18.90;99.90;;;;;;5073509;28;20252;-74
2022/05/06 09:08:20;;;;;;;4.50;2.97;;;18.80;99.90;;;;;;5073122;28;20228;-72
2022/05/06 09:11:04;;;;;;;3.65;3.22;;;19.00;99.90;;;;;;5073589;28;20206;-75
2022/05/06 09:13:31;;;;;;;6.90;3.05;;;18.80;99.90;;;;;;5073446;28;20230;-76
2022/05/06 09:19:28;;;;;;;6.22;3.38;;;19.60;99.90;;;;;;5072793;28;20201;-76
2022/05/06 09:22:03;;;;;;;3.53;3.20;;;20.60;99.90;;;;;;5073591;28;20605;-73
2022/05/06 09:24:30;;;;;;;5.75;2.45;;;21.60;99.90;;;;;;5073315;28;20577;-74
2022/05/06 09:27:02;;;;;;;4.82;3.13;;;21.70;99.90;;;;;;5073270;28;20206;-77
2022/05/06 09:29:30;;;;;;;3.85;2.97;;;21.80;99.90;;;;;;5073090;28;20719;-74
2022/05/06 09:32:14;;;;;;;3.92;3.50;;;21.40;99.90;;;;;;5073194;28;20198;-76
2022/05/06 09:34:41;;;;;;;3.25;2.95;;;24.20;99.90;;;;;;5072909;28;20198;-78
2022/05/06 09:37:08;;;;;;;3.85;3.15;;;25.50;99.90;;;;;;5072498;28;20263;-77
2022/05/06 09:39:38;;;;;;;5.15;3.38;;;26.20;99.90;;;;;;5072408;28;20202;-77
2022/05/06 09:42:07;;;;;;;6.55;2.63;;;26.90;99.90;;;;;;5072514;28;20206;-77
2022/05/06 09:44:35;;;;;;;6.25;2.97;;;28.50;99.90;;;;;;5072880;28;20206;-76
2022/05/06 09:47:10;;;;;;;4.38;3.88;;;27.50;99.90;;;;;;5072686;28;20202;-78
2022/05/06 09:49:39;;;;;;;5.38;3.40;;;25.60;99.90;;;;;;5072838;28;20241;-76
2022/05/06 09:52:11;;;;;;;3.83;3.35;;;26.80;99.90;;;;;;5072561;28;20214;-74
2022/05/06 09:54:41;;;;;;;6.88;3.42;;;23.10;99.90;;;;;;5072476;28;20561;-73
2022/05/06 09:57:12;;;;;;;2.95;2.63;;;20.40;99.90;;;;;;5072409;28;20202;-73
2022/05/06 09:59:39;;;;;;;3.03;2.72;;;19.30;99.90;;;;;;5072313;28;20259;-76
2022/05/06 10:02:08;;;;;;;4.43;2.90;;;18.90;99.90;;;;;;5072146;28;20718;-72
2022/05/06 10:04:35;;;;;;;4.25;2.47;;;18.80;99.90;;;;;;5072362;28;20206;-78
2022/05/06 10:07:03;;;;;;;2.53;2.28;;;18.70;99.90;;;;;;5071790;28;20579;-74
2022/05/06 10:09:33;;;;;;;2.63;2.28;;;18.70;99.90;;;;;;5072377;28;20202;-77
2022/05/06 10:12:03;;;;;;;3.80;2.28;;;18.90;99.90;;;;;;5072367;28;20283;-77
2022/05/06 10:14:32;;;;;;;2.65;2.45;;;19.60;99.90;;;;;;5072281;28;20661;-78
2022/05/06 10:16:59;;;;;;;4.07;2.50;;;19.30;99.90;;;;;;5071942;28;20198;-78
2022/05/06 10:19:27;;;;;;;4.63;2.13;;;18.90;99.90;;;;;;5072293;28;20198;-74
2022/05/06 10:21:55;;;;;;;3.83;2.35;;;18.70;99.90;;;;;;5072539;28;20679;-78
2022/05/06 10:24:23;;;;;;;3.75;2.70;;;18.50;99.90;;;;;;5072086;28;20202;-79
2022/05/06 10:26:51;;;;;;;4.47;2.33;;;18.60;99.90;;;;;;5072117;28;20670;-75
2022/05/06 10:32:54;;;;;;;4.28;3.10;;;19.00;99.90;;;;;;5071871;28;20205;-75
2022/05/06 10:35:37;;;;;;;3.85;2.58;;;19.30;99.90;;;;;;5072103;28;20202;-77
2022/05/06 10:38:17;;;;;;;3.03;2.67;;;19.00;99.90;;;;;;5071370;28;20220;-78
2022/05/06 10:40:51;;;;;;;3.38;2.30;;;18.60;99.90;;;;;;5071922;28;20202;-78
2022/05/06 10:43:54;;;;;;;3.25;2.65;;;18.50;99.90;;;;;;5071438;28;20606;-74
2022/05/06 10:46:37;;;;;;;2.67;2.47;;;18.80;99.90;;;;;;5061571;28;20255;-74
2022/05/06 10:49:47;;;;;;;4.47;3.22;;;18.90;99.90;;;;;;5056476;28;20241;-75
2022/05/06 10:52:51;;;;;;;3.72;2.75;;;19.20;99.90;;;;;;5049035;28;20219;-76
2022/05/06 10:55:23;;;;;;;2.53;2.28;;;20.50;99.90;;;;;;5028901;28;20215;-72
2022/05/06 10:57:57;;;;;;;4.00;2.90;;;20.00;99.90;;;;;;5029523;28;20200;-73
2022/05/06 11:00:27;;;;;;;3.67;2.90;;;19.40;99.90;;;;;;5041879;28;20261;-73
2022/05/06 11:02:55;;;;;;;3.80;2.85;;;19.30;99.90;;;;;;5051852;28;20207;-73
2022/05/06 11:05:24;;;;;;;4.50;2.75;;;20.30;99.90;;;;;;5051385;28;20293;-72
2022/05/06 11:07:56;;;;;;;3.30;2.50;;;21.00;99.90;;;;;;5051455;28;20292;-72
2022/05/06 11:10:25;;;;;;;3.90;2.55;;;21.00;99.90;;;;;;5051463;28;20206;-76
2022/05/06 11:12:53;;;;;;;4.82;3.33;;;20.70;99.90;;;;;;5051783;28;20290;-74
2022/05/06 11:15:22;;;;;;;3.00;2.70;;;20.00;99.90;;;;;;5050848;28;20260;-73
2022/05/06 11:17:50;;;;;;;2.95;2.38;;;19.50;99.90;;;;;;5051073;28;20206;-75
2022/05/06 11:20:21;;;;;;;3.13;2.63;;;19.00;99.90;;;;;;5050866;28;20628;-76
2022/05/06 11:22:58;;;;;;;3.60;2.28;;;18.90;99.90;;;;;;5051254;28;20242;-73
2022/05/06 11:25:28;;;;;;;2.88;2.00;;;18.90;99.90;;;;;;5051438;28;20624;-74
2022/05/06 11:27:56;;;;;;;4.50;3.33;;;18.90;99.90;;;;;;5051279;28;20654;-74
2022/05/06 11:30:25;;;;;;;4.15;2.50;;;18.90;99.90;;;;;;5050699;28;20207;-76
2022/05/06 11:32:53;;;;;;;2.92;1.95;;;18.90;99.90;;;;;;5051343;28;20199;-75
2022/05/06 11:35:25;;;;;;;3.70;2.58;;;19.00;99.90;;;;;;5050490;28;20252;-75
2022/05/06 11:37:52;;;;;;;3.72;1.60;;;19.30;99.90;;;;;;5051093;28;20210;-76
2022/05/06 11:40:34;;;;;;;2.25;1.90;;;19.80;99.90;;;;;;5050543;28;20606;-74
2022/05/06 11:43:16;;;;;;;2.97;2.47;;;20.10;99.90;;;;;;5056141;28;20206;-74
2022/05/06 11:48:30;;;;;;;5.90;2.50;;;21.10;99.90;;;;;;5068209;28;20740;-72
2022/05/06 11:51:00;;;;;;;5.32;2.40;;;20.50;99.90;;;;;;5058197;28;20264;-73
2022/05/06 11:53:28;;;;;;;3.28;2.30;;;20.40;99.90;;;;;;5050809;28;20211;-74
2022/05/06 11:55:57;;;;;;;3.45;2.00;;;20.40;99.90;;;;;;5050927;28;20279;-74
2022/05/06 11:58:28;;;;;;;2.35;2.13;;;20.80;99.90;;;;;;5051246;28;20202;-75
2022/05/06 12:00:55;;;;;;;1.73;1.58;;;21.60;99.90;;;;;;5050975;28;20207;-74
2022/05/06 12:03:24;;;;;;;2.40;2.25;;;22.10;99.90;;;;;;5054943;28;20199;-74
2022/05/06 12:06:06;;;;;;;6.38;2.65;;;20.80;99.90;;;;;;5054897;28;20202;-79
2022/05/06 12:08:35;;;;;;;7.10;2.75;;;19.90;99.90;;;;;;5054843;28;20273;-76
2022/05/06 12:11:06;;;;;;;3.08;2.20;;;19.70;99.90;;;;;;5071450;28;20217;-79
2022/05/06 12:13:36;;;;;;;2.83;2.13;;;19.50;99.90;;;;;;5054460;28;20230;-77
2022/05/06 12:16:08;;;;;;;1.92;1.80;;;19.20;99.90;;;;;;5056926;28;20209;-76
2022/05/06 12:18:36;;;;;;;2.67;2.47;;;19.40;99.90;;;;;;5070244;28;20275;-76
2022/05/06 12:21:19;;;;;;;3.65;1.98;;;20.30;99.90;;;;;;5064922;28;20207;-78
2022/05/06 12:23:58;;;;;;;2.58;2.35;;;21.20;99.90;;;;;;5054471;28;20206;-76
2022/05/06 12:26:32;;;;;;;2.67;2.15;;;21.90;99.90;;;;;;5059157;28;20259;-74
2022/05/06 12:28:59;;;;;;;3.72;1.95;;;21.60;99.90;;;;;;5060368;28;20651;-74
2022/05/06 12:31:29;;;;;;;3.15;2.13;;;20.80;99.90;;;;;;5070185;28;20210;-72
2022/05/06 12:34:03;;;;;;;3.00;1.73;;;20.40;99.90;;;;;;5055543;28;20224;-74
2022/05/06 12:36:32;;;;;;;3.20;2.72;;;20.20;99.90;;;;;;5072962;28;20217;-79
2022/05/06 12:38:59;;;;;;;4.22;2.10;;;20.10;99.90;;;;;;5068691;28;20206;-79
2022/05/06 12:41:27;;;;;;;3.33;1.80;;;20.10;99.90;;;;;;5064138;28;20241;-78
2022/05/06 12:43:58;;;;;;;3.28;2.08;;;20.20;99.90;;;;;;5071230;28;20691;-76
2022/05/06 12:46:26;;;;;;;3.05;2.10;;;20.30;99.90;;;;;;5074574;28;20210;-74
2022/05/06 12:51:40;;;;;;;1.80;1.70;;;20.80;99.90;;;;;;5068314;28;20209;-77
2022/05/06 12:54:07;;;;;;;2.33;1.98;;;21.60;99.90;;;;;;5053328;28;20203;-76
2022/05/06 12:56:34;;;;;;;2.78;2.20;;;21.80;99.90;;;;;;5068594;28;20209;-78
2022/05/06 12:59:03;;;;;;;2.08;1.88;;;21.60;99.90;;;;;;5073285;28;20202;-80
2022/05/06 13:01:30;;;;;;;3.70;1.95;;;21.40;99.90;;;;;;5073804;28;20198;-78
2022/05/06 13:03:57;;;;;;;2.28;1.95;;;21.00;99.90;;;;;;5072102;28;20283;-75
2022/05/06 13:06:24;;;;;;;3.92;1.83;;;20.90;99.90;;;;;;5056854;28;20211;-76
2022/05/06 13:08:51;;;;;;;7.75;2.05;;;20.70;99.90;;;;;;5052991;28;20648;-79
2022/05/06 13:11:18;;;;;;;3.63;2.78;;;20.40;99.90;;;;;;5071321;28;20271;-75
2022/05/06 13:13:45;;;;;;;4.75;1.65;;;20.10;99.90;;;;;;5061294;28;20258;-77
2022/05/06 13:16:14;;;;;;;6.93;2.38;;;20.10;99.90;;;;;;5064910;28;20666;-79
2022/05/06 13:18:40;;;;;;;3.45;1.70;;;20.10;99.90;;;;;;5061465;28;20281;-78
2022/05/06 13:21:07;;;;;;;2.03;1.70;;;20.50;99.90;;;;;;5070106;28;20205;-73
2022/05/06 13:23:35;;;;;;;4.43;1.73;;;20.70;99.90;;;;;;5070181;28;20207;-79
2022/05/06 13:26:02;;;;;;;1.33;1.23;;;21.00;99.90;;;;;;5069271;28;20678;-76
2022/05/06 13:28:29;;;;;;;2.67;1.70;;;21.00;99.90;;;;;;5062523;28;20659;-77
2022/05/06 13:30:56;;;;;;;8.07;1.98;;;21.10;99.90;;;;;;5079319;28;20276;-77
2022/05/06 13:33:24;;;;;;;3.15;1.60;;;21.20;99.90;;;;;;5075895;28;20210;-83
2022/05/06 13:35:52;;;;;;;3.47;1.38;;;21.20;99.90;;;;;;5074316;28;20206;-78
2022/05/06 13:38:19;;;;;;;2.65;2.28;;;21.00;99.90;;;;;;5068862;28;20315;-83
2022/05/06 13:40:48;;;;;;;2.22;1.60;;;20.90;99.90;;;;;;5072050;28;20210;-78
2022/05/06 13:43:15;;;;;;;3.88;2.10;;;20.80;99.90;;;;;;5072017;28;20271;-77
2022/05/06 13:45:42;;;;;;;3.58;2.53;;;21.00;99.90;;;;;;5076170;28;20733;-77
2022/05/06 13:48:11;;;;;;;4.68;1.80;;;21.00;99.90;;;;;;5075420;28;20260;-80